Time;durP1;ratioP1;P1;durP2;ratioP2;P2;SDS_P1;SDS_P2;PMS_P1;PMS_P2;Temp;Humidity;BMP_temperature;BMP_pressure;BME280_temperature;BME280_humidity;BME280_pressure;Samples;Min_cycle;Max_cycle;Signal;HPM_P1;HPM_P2
2023/01/31 00:13:47;;;;;;;23.60;2.70;;;;;;;2.72;100.00;99704.05;212708;1292;139354;-85
2023/01/31 00:19:49;;;;;;;18.70;3.70;;;;;;;2.71;100.00;99714.94;212716;1291;138534;-85
2023/01/31 00:25:50;;;;;;;21.10;2.90;;;;;;;2.70;100.00;99722.99;213126;1290;138679;-84
2023/01/31 00:31:51;;;;;;;17.00;3.50;;;;;;;2.70;100.00;99731.84;212573;1290;138592;-86
2023/01/31 00:37:50;;;;;;;;;;;;;;;;;;;;;
2023/01/31 00:43:52;;;;;;;10.20;2.40;;;;;;;2.68;100.00;99756.00;212704;1293;138987;-85
2023/01/31 00:49:43;;;;;;;11.70;2.50;;;;;;;2.69;100.00;99765.64;212563;1292;138950;-86
2023/01/31 00:55:44;;;;;;;14.90;2.30;;;;;;;2.68;100.00;99768.17;213085;1293;138477;-85
2023/01/31 01:01:45;;;;;;;15.70;2.90;;;;;;;2.67;100.00;99780.02;212768;1292;138470;-85
2023/01/31 01:07:46;;;;;;;21.40;4.90;;;;;;;2.67;100.00;99797.00;213207;1291;138406;-84
2023/01/31 01:13:47;;;;;;;19.40;2.50;;;;;;;2.64;100.00;99801.25;212911;1291;138551;-85
2023/01/31 01:19:48;;;;;;;10.20;2.50;;;;;;;2.66;100.00;99803.41;213072;1295;139238;-84
2023/01/31 01:25:50;;;;;;;18.00;2.70;;;;;;;2.65;100.00;99810.84;213258;1291;139370;-85
2023/01/31 01:31:50;;;;;;;14.70;2.80;;;;;;;2.63;100.00;99829.77;212770;1291;140397;-85
2023/01/31 01:37:44;;;;;;;;;;;;;;;;;;;;;
2023/01/31 01:43:46;;;;;;;16.00;2.40;;;;;;;2.58;100.00;99854.91;212723;1295;138368;-86
2023/01/31 01:49:50;;;;;;;14.90;2.70;;;;;;;2.55;100.00;99864.92;212628;1290;138799;-85
2023/01/31 01:56:01;;;;;;;14.40;3.10;;;;;;;2.54;100.00;99873.73;213150;1296;138603;-84
2023/01/31 02:02:01;;;;;;;18.20;3.60;;;;;;;2.51;100.00;99877.81;212568;1292;139191;-84
2023/01/31 02:08:02;;;;;;;13.20;2.70;;;;;;;2.50;100.00;99889.58;213015;1291;138543;-85
2023/01/31 02:14:01;;;;;;;12.90;2.80;;;;;;;2.49;100.00;99896.84;212799;1291;138768;-86
2023/01/31 02:20:15;;;;;;;10.90;2.40;;;;;;;2.48;100.00;99909.50;212599;1295;139160;-85
2023/01/31 02:26:15;;;;;;;14.00;3.30;;;;;;;2.47;100.00;99924.45;212730;1294;138789;-86
2023/01/31 02:32:17;;;;;;;11.40;2.70;;;;;;;2.47;100.00;99939.43;212548;1292;138790;-86
2023/01/31 02:38:39;;;;;;;14.40;2.50;;;;;;;2.46;100.00;99952.76;213003;1292;138810;-86
2023/01/31 02:51:22;;;;;;;17.80;3.40;;;;;;;2.44;100.00;99965.69;212358;1294;138746;-86
2023/01/31 02:57:23;;;;;;;13.10;2.90;;;;;;;2.42;100.00;99985.91;213446;1292;138464;-84
2023/01/31 03:03:14;;;;;;;;;;;;;;;;;;;;;
2023/01/31 03:09:41;;;;;;;15.30;2.70;;;;;;;2.42;100.00;99994.80;212561;1295;140261;-86
2023/01/31 03:15:20;;;;;;;19.40;4.20;;;;;;;2.40;100.00;100002.73;212946;1296;138884;-85
2023/01/31 03:21:25;;;;;;;11.50;2.50;;;;;;;2.39;100.00;100005.02;212683;1296;139205;-86
2023/01/31 03:27:19;;;;;;;;;;;;;;;;;;;;;
2023/01/31 03:33:30;;;;;;;18.20;3.10;;;;;;;2.39;100.00;100024.32;212349;1295;139315;-85
2023/01/31 03:39:31;;;;;;;13.40;2.90;;;;;;;2.38;100.00;100031.04;212385;1294;139004;-85
2023/01/31 03:45:42;;;;;;;13.90;3.10;;;;;;;2.39;100.00;100043.48;212804;1292;138747;-83
2023/01/31 03:51:43;;;;;;;19.00;3.60;;;;;;;2.39;100.00;100050.88;212345;1294;138858;-85
2023/01/31 03:57:41;;;;;;;;;;;;;;;;;;;;;
2023/01/31 04:03:25;;;;;;;17.30;2.40;;;;;;;2.39;100.00;100060.80;212613;1294;138939;-85
2023/01/31 04:09:19;;;;;;;13.00;2.40;;;;;;;2.39;100.00;100066.95;212467;1296;138984;-85
2023/01/31 04:15:12;;;;;;;12.00;2.10;;;;;;;2.39;100.00;100074.86;213289;1292;138564;-85
2023/01/31 04:21:14;;;;;;;12.80;2.80;;;;;;;2.38;100.00;100072.34;212809;1294;139567;-85
2023/01/31 04:27:08;;;;;;;;;;;;;;;;;;;;;
2023/01/31 04:33:10;;;;;;;20.20;3.20;;;;;;;2.36;100.00;100090.80;213049;1294;139336;-84
2023/01/31 04:39:12;;;;;;;9.00;1.80;;;;;;;2.36;100.00;100099.17;212420;1293;139390;-85
2023/01/31 04:45:11;;;;;;;11.60;2.30;;;;;;;2.37;100.00;100110.05;213232;1293;138555;-85
2023/01/31 04:51:11;;;;;;;;;;;;;;;;;;;;;
2023/01/31 04:57:13;;;;;;;15.40;2.30;;;;;;;2.34;100.00;100121.54;212768;1294;139171;-85
2023/01/31 05:03:05;;;;;;;11.70;2.00;;;;;;;2.35;100.00;100136.28;212446;1294;138994;-85
2023/01/31 05:15:06;;;;;;;;;;;;;;;;;;;;;
2023/01/31 05:21:04;;;;;;;8.80;1.70;;;;;;;2.33;100.00;100165.15;212614;1293;138749;-84
2023/01/31 05:26:46;;;;;;;;;;;;;;;2.31;100.00;100168.42;213296;1295;138460;-85
2023/01/31 05:32:40;;;;;;;13.70;1.90;;;;;;;2.28;100.00;100174.51;212927;1295;125209;-84
2023/01/31 05:38:41;;;;;;;12.80;2.80;;;;;;;2.26;100.00;100182.41;213418;1290;138834;-86
2023/01/31 05:50:43;;;;;;;11.60;2.30;;;;;;;2.26;100.00;100188.67;212568;1295;138790;-84
2023/01/31 05:56:33;;;;;;;;;;;;;;;;;;;;;
2023/01/31 06:08:35;;;;;;;10.80;1.90;;;;;;;2.21;100.00;100196.17;213449;1291;138646;-86
2023/01/31 06:14:19;;;;;;;13.60;2.30;;;;;;;2.18;100.00;100198.30;213317;1292;138822;-85
2023/01/31 06:20:20;;;;;;;14.90;2.80;;;;;;;2.14;100.00;100206.05;212618;1291;139032;-86
2023/01/31 06:26:22;;;;;;;19.70;3.20;;;;;;;2.12;100.00;100217.03;213117;1290;138913;-86
2023/01/31 06:32:13;;;;;;;14.70;2.80;;;;;;;2.09;100.00;100228.10;212748;1291;138815;-84
2023/01/31 06:38:06;;;;;;;;;;;;;;;;;;;;;
2023/01/31 06:44:02;;;;;;;;;;;;;;;;;;;;;
2023/01/31 06:56:00;;;;;;;;;;;;;;;;;;;;;
2023/01/31 07:02:11;;;;;;;10.50;2.80;;;;;;;2.05;100.00;100275.20;212780;1297;139413;-85
2023/01/31 07:08:04;;;;;;;;;;;;;;;;;;;;;
2023/01/31 07:13:56;;;;;;;16.50;3.10;;;;;;;2.05;100.00;100287.80;212967;1291;139329;-84
2023/01/31 07:19:58;;;;;;;12.80;2.20;;;;;;;2.07;100.00;100289.84;213131;1291;138869;-84
2023/01/31 07:26:01;;;;;;;14.80;2.90;;;;;;;2.09;100.00;100293.77;213339;1290;139395;-84
2023/01/31 07:32:05;;;;;;;;;;;;;;;;;;;;;
2023/01/31 07:37:50;;;;;;;16.20;2.70;;;;;;;2.13;100.00;100310.80;213675;1291;139494;-85
2023/01/31 07:43:41;;;;;;;;;;;;;;;;;;;;;
2023/01/31 07:49:24;;;;;;;17.40;3.20;;;;;;;2.17;100.00;100315.39;213056;1291;138996;-85
2023/01/31 07:55:26;;;;;;;18.20;4.60;;;;;;;2.19;100.00;100323.90;213486;1291;138825;-83
2023/01/31 08:07:12;;;;;;;8.80;2.30;;;;;;;2.25;100.00;100321.06;213511;1291;138714;-85
2023/01/31 08:13:13;;;;;;;9.30;1.90;;;;;;;2.31;100.00;100328.98;213033;1294;138899;-86
2023/01/31 08:19:03;;;;;;;25.00;4.30;;;;;;;2.38;100.00;100326.81;213254;1296;138546;-86
2023/01/31 08:25:05;;;;;;;14.90;2.70;;;;;;;2.45;100.00;100331.38;214331;1294;139411;-86
2023/01/31 08:31:06;;;;;;;12.30;2.80;;;;;;;2.55;100.00;100336.52;213072;1291;138862;-85
2023/01/31 08:37:05;;;;;;;19.00;3.00;;;;;;;2.65;100.00;100347.12;213339;1290;139406;-84
2023/01/31 08:42:41;;;;;;;;;;;;;;;;;;;;;
2023/01/31 08:48:44;;;;;;;13.90;2.60;;;;;;;2.75;100.00;100356.00;213440;1291;139084;-89
2023/01/31 08:54:34;;;;;;;12.90;2.60;;;;;;;2.79;100.00;100346.20;213333;1291;138921;-85
2023/01/31 09:00:19;;;;;;;21.60;3.90;;;;;;;2.82;100.00;100357.89;212741;1303;139090;-86
2023/01/31 09:06:12;;;;;;;;;;;;;;;;;;;;;
2023/01/31 09:12:03;;;;;;;10.90;3.20;;;;;;;2.94;100.00;100356.52;213069;1294;139100;-86
2023/01/31 09:18:05;;;;;;;22.00;7.10;;;;;;;3.04;100.00;100355.30;214493;1291;139766;-83
2023/01/31 09:23:48;;;;;;;20.00;3.30;;;;;;;3.15;100.00;100356.59;212734;1294;138947;-84
2023/01/31 09:29:47;;;;;;;;;;;;;;;;;;;;;
2023/01/31 09:35:48;;;;;;;12.50;3.40;;;;;;;3.45;100.00;100367.00;213471;1291;139341;-86
2023/01/31 09:41:40;;;;;;;;;;;;;;;;;;;;;
2023/01/31 09:47:30;;;;;;;14.50;3.00;;;;;;;3.43;100.00;100366.30;213309;1296;139324;-85
2023/01/31 09:53:24;;;;;;;;;;;;;;;;;;;;;
2023/01/31 09:59:09;;;;;;;;;;;;;;;3.50;100.00;100366.33;212862;1294;138886;-86
2023/01/31 10:05:15;;;;;;;17.50;3.00;;;;;;;3.52;100.00;100366.49;213376;1297;112599;-85
2023/01/31 10:11:13;;;;;;;;;;;;;;;;;;;;;
2023/01/31 10:17:21;;;;;;;18.70;2.90;;;;;;;3.69;100.00;100354.08;213387;1291;104204;-86
2023/01/31 10:23:31;;;;;;;;;;;;;;;;;;;;;
2023/01/31 10:29:33;;;;;;;;;;;;;;;;;;;;;
2023/01/31 10:35:17;;;;;;;18.10;3.00;;;;;;;4.27;99.46;100348.45;213366;1292;97952;-85
2023/01/31 10:41:19;;;;;;;14.30;2.70;;;;;;;4.30;99.09;100350.35;212865;1294;139105;-86
2023/01/31 10:47:03;;;;;;;21.10;4.30;;;;;;;4.26;98.83;100349.06;213305;1294;99282;-86
2023/01/31 10:53:17;;;;;;;16.00;3.50;;;;;;;4.24;98.11;100344.33;212950;1297;139935;-86
2023/01/31 10:59:02;;;;;;;15.30;3.20;;;;;;;4.19;99.05;100333.54;212664;1297;138828;-86
2023/01/31 11:04:55;;;;;;;;;;;;;;;;;;;;;
2023/01/31 11:10:42;;;;;;;15.30;3.10;;;;;;;4.27;99.74;100310.94;212765;1290;138990;-86
2023/01/31 11:16:44;;;;;;;19.90;4.20;;;;;;;4.29;99.04;100304.80;213291;1294;138655;-87
2023/01/31 11:22:43;;;;;;;;;;;;;;;;;;;;;
2023/01/31 11:28:34;;;;;;;14.00;3.00;;;;;;;4.33;98.96;100286.86;213377;1291;138455;-85
2023/01/31 11:34:33;;;;;;;;;;;;;;;;;;;;;
2023/01/31 11:40:18;;;;;;;22.50;4.40;;;;;;;4.33;98.34;100277.76;212817;1291;138966;-85
2023/01/31 11:46:19;;;;;;;15.40;3.60;;;;;;;4.35;98.39;100273.23;213279;1296;138523;-85
2023/01/31 11:52:16;;;;;;;;;;;;;;;;;;;;;
2023/01/31 11:58:18;;;;;;;15.30;2.50;;;;;;;4.34;98.03;100255.69;213339;1293;138446;-88
2023/01/31 12:04:03;;;;;;;14.70;3.20;;;;;;;4.31;98.30;100251.54;213225;1293;139038;-87
2023/01/31 12:10:08;;;;;;;14.90;3.20;;;;;;;4.29;99.14;100242.35;212605;1294;138596;-85
2023/01/31 12:16:00;;;;;;;15.20;2.80;;;;;;;4.28;99.41;100225.84;213656;1295;138547;-85
2023/01/31 12:22:03;;;;;;;;;;;;;;;;;;;;;
2023/01/31 12:28:00;;;;;;;;;;;;;;;;;;;;;
2023/01/31 12:34:21;;;;;;;12.70;3.00;;;;;;;4.29;100.00;100201.66;213035;1291;139265;-86
2023/01/31 12:40:38;;;;;;;9.60;2.50;;;;;;;4.28;100.00;100191.90;212729;1293;140223;-87
2023/01/31 12:46:38;;;;;;;9.90;2.20;;;;;;;4.22;100.00;100178.55;213640;1294;138504;-85
2023/01/31 12:52:44;;;;;;;;;;;;;;;;;;;;;
2023/01/31 12:58:48;;;;;;;16.30;3.10;;;;;;;4.09;100.00;100153.78;213343;1297;138563;-86
2023/01/31 13:04:57;;;;;;;12.00;4.10;;;;;;;4.03;100.00;100142.94;214753;1295;138563;-85
2023/01/31 13:10:57;;;;;;;23.00;3.20;;;;;;;3.99;100.00;100131.06;212616;1291;138981;-85
2023/01/31 13:16:59;;;;;;;16.10;3.60;;;;;;;3.94;100.00;100124.59;213569;1295;138991;-86
2023/01/31 13:23:00;;;;;;;17.90;5.10;;;;;;;3.88;100.00;100126.75;212765;1294;138688;-83
2023/01/31 13:28:52;;;;;;;24.10;4.40;;;;;;;3.84;100.00;100118.05;213302;1294;138538;-87
2023/01/31 13:35:11;;;;;;;16.60;4.70;;;;;;;3.83;100.00;100113.68;212955;1293;138771;-86
2023/01/31 13:41:26;;;;;;;;;;;;;;;;;;;;;
2023/01/31 13:47:31;;;;;;;18.70;7.60;;;;;;;3.79;100.00;100090.58;213354;1292;111412;-86
2023/01/31 13:53:31;;;;;;;13.50;4.20;;;;;;;3.75;100.00;100086.34;212840;1292;138817;-86
2023/01/31 13:59:23;;;;;;;11.00;2.70;;;;;;;3.72;100.00;100076.13;212906;1295;138884;-86
2023/01/31 14:05:24;;;;;;;8.20;2.30;;;;;;;3.68;100.00;100061.45;213526;1295;138609;-85
2023/01/31 14:11:07;;;;;;;;;;;;;;;;;;;;;
2023/01/31 14:17:15;;;;;;;9.50;3.00;;;;;;;3.61;100.00;100048.27;213446;1294;139697;-84
2023/01/31 14:23:12;;;;;;;11.10;3.80;;;;;;;3.53;100.00;100035.80;212815;1295;138925;-86
2023/01/31 14:29:07;;;;;;;17.10;5.60;;;;;;;3.51;100.00;100029.64;212831;1291;139158;-84
2023/01/31 14:35:18;;;;;;;13.60;3.60;;;;;;;3.46;100.00;100023.21;213388;1293;138528;-85
2023/01/31 14:41:17;;;;;;;10.70;4.10;;;;;;;3.44;100.00;100020.02;212417;1292;139204;-85
2023/01/31 14:47:20;;;;;;;14.70;4.20;;;;;;;3.39;100.00;100019.02;213410;1297;138565;-85
2023/01/31 14:53:36;;;;;;;16.20;5.00;;;;;;;3.35;100.00;100005.75;212805;1295;138713;-85
2023/01/31 14:59:28;;;;;;;;;;;;;;;;;;;;;
2023/01/31 15:05:29;;;;;;;17.10;4.90;;;;;;;3.20;100.00;99991.93;213273;1291;138298;-87
2023/01/31 15:11:41;;;;;;;19.30;7.20;;;;;;;3.14;100.00;99986.70;212649;1295;138492;-84
2023/01/31 15:17:56;;;;;;;;;;;;;;;;;;;;;
2023/01/31 15:23:40;;;;;;;;;;;;;;;;;;;;;
2023/01/31 15:29:41;;;;;;;13.80;5.90;;;;;;;3.05;100.00;99971.18;212790;1292;140244;-84
2023/01/31 15:35:43;;;;;;;16.50;7.00;;;;;;;3.04;100.00;99964.08;213282;1291;138285;-85
2023/01/31 15:41:40;;;;;;;;;;;;;;;;;;;;;
2023/01/31 15:47:21;;;;;;;;;;;;;;;3.03;100.00;99946.48;213604;1296;138672;-84
2023/01/31 15:53:22;;;;;;;20.30;8.00;;;;;;;3.03;100.00;99939.58;212939;1291;124788;-85
2023/01/31 15:59:24;;;;;;;20.20;6.30;;;;;;;3.06;100.00;99928.10;212669;1292;139050;-84
2023/01/31 16:05:25;;;;;;;18.50;8.70;;;;;;;3.07;100.00;99917.11;213354;1290;138427;-83
2023/01/31 16:11:26;;;;;;;21.60;8.50;;;;;;;3.09;100.00;99907.94;213019;1291;138651;-84
2023/01/31 16:17:27;;;;;;;20.90;7.90;;;;;;;3.11;100.00;99897.27;213297;1293;138679;-85
2023/01/31 16:23:21;;;;;;;25.90;8.80;;;;;;;3.12;100.00;99883.78;212833;1290;138447;-84
2023/01/31 16:29:22;;;;;;;21.90;8.20;;;;;;;3.13;100.00;99871.54;212742;1292;138957;-84
2023/01/31 16:35:26;;;;;;;18.30;8.50;;;;;;;3.13;100.00;99868.76;213344;1291;138925;-83
2023/01/31 16:41:21;;;;;;;22.20;8.70;;;;;;;3.13;100.00;99861.63;212917;1295;138784;-85
2023/01/31 16:47:21;;;;;;;20.20;8.70;;;;;;;3.14;100.00;99852.94;213133;1291;138475;-84
2023/01/31 16:53:27;;;;;;;23.10;8.40;;;;;;;3.14;100.00;99852.77;212590;1291;138356;-85
2023/01/31 16:59:44;;;;;;;19.70;7.70;;;;;;;3.14;100.00;99846.02;212797;1291;159833;-83
2023/01/31 17:06:10;;;;;;;17.70;8.60;;;;;;;3.13;100.00;99836.92;212723;1291;138404;-84
2023/01/31 17:11:49;;;;;;;;;;;;;;;;;;;;;
2023/01/31 17:17:44;;;;;;;21.50;10.10;;;;;;;3.12;100.00;99808.75;213178;1294;139166;-83
2023/01/31 17:23:44;;;;;;;24.90;9.40;;;;;;;3.11;100.00;99792.20;212702;1294;138816;-85
2023/01/31 17:29:46;;;;;;;16.60;7.40;;;;;;;3.12;100.00;99783.67;212496;1294;138606;-84
2023/01/31 17:35:20;;;;;;;22.30;10.20;;;;;;;3.13;100.00;99777.02;213141;1291;138775;-84
2023/01/31 17:41:18;;;;;;;18.10;8.80;;;;;;;3.14;100.00;99778.21;212582;1295;139759;-86
2023/01/31 17:47:19;;;;;;;19.70;8.00;;;;;;;3.15;100.00;99772.89;213372;1291;138580;-86
2023/01/31 17:53:19;;;;;;;16.50;7.00;;;;;;;3.16;100.00;99764.92;213034;1297;138889;-83
2023/01/31 17:59:21;;;;;;;23.20;9.40;;;;;;;3.19;100.00;99750.64;213248;1294;138966;-83
2023/01/31 18:05:10;;;;;;;15.90;7.20;;;;;;;3.20;100.00;99743.21;213152;1291;248612;-84
2023/01/31 18:11:13;;;;;;;18.20;7.70;;;;;;;3.24;100.00;99727.25;212791;1293;138671;-85
2023/01/31 18:17:38;;;;;;;24.10;9.70;;;;;;;3.29;100.00;99714.48;212887;1292;139453;-84
2023/01/31 18:23:14;;;;;;;20.00;9.60;;;;;;;3.33;100.00;99705.66;213674;1294;139014;-86
2023/01/31 18:29:18;;;;;;;17.50;8.30;;;;;;;3.40;100.00;99693.89;212708;1295;139085;-85
2023/01/31 18:35:06;;;;;;;18.20;9.70;;;;;;;3.45;100.00;99680.33;213770;1295;139383;-88
2023/01/31 18:41:07;;;;;;;17.80;8.50;;;;;;;3.49;100.00;99675.81;212703;1294;139113;-87
2023/01/31 18:47:08;;;;;;;18.20;9.40;;;;;;;3.54;100.00;99667.41;212983;1295;139853;-87
2023/01/31 18:52:53;;;;;;;;;;;;;;;;;;;;;
2023/01/31 18:58:55;;;;;;;17.60;9.20;;;;;;;3.65;100.00;99636.21;212982;1291;139143;-86
2023/01/31 19:04:56;;;;;;;16.20;8.10;;;;;;;3.71;100.00;99647.39;213364;1297;138702;-86
2023/01/31 19:10:59;;;;;;;18.20;9.10;;;;;;;3.76;100.00;99652.51;213055;1291;139224;-89
2023/01/31 19:17:00;;;;;;;15.80;7.20;;;;;;;3.81;100.00;99654.58;213034;1291;139250;-85
2023/01/31 19:23:02;;;;;;;15.50;6.90;;;;;;;3.87;100.00;99642.90;213664;1294;139115;-92
2023/01/31 19:28:53;;;;;;;28.60;12.80;;;;;;;3.93;100.00;99630.77;213040;1294;139027;-86
2023/01/31 19:34:40;;;;;;;17.00;7.80;;;;;;;4.00;100.00;99622.75;213886;1294;139504;-86
2023/01/31 19:46:37;;;;;;;;;;;;;;;;;;;;;
2023/01/31 19:52:36;;;;;;;;;;;;;;;;;;;;;
2023/01/31 19:58:38;;;;;;;13.50;7.00;;;;;;;4.18;100.00;99605.53;212979;1294;139480;-82
2023/01/31 20:04:31;;;;;;;;;;;;;;;;;;;;;
2023/01/31 20:10:24;;;;;;;13.50;7.50;;;;;;;4.23;100.00;99574.13;212759;1291;138729;-86
2023/01/31 20:16:24;;;;;;;13.20;6.90;;;;;;;4.25;100.00;99563.45;213225;1291;139124;-84
2023/01/31 20:22:26;;;;;;;11.90;5.30;;;;;;;4.26;100.00;99546.19;213723;1291;98016;-84
2023/01/31 20:28:06;;;;;;;13.00;6.40;;;;;;;4.25;100.00;99533.11;213483;1292;139008;-85
2023/01/31 20:33:59;;;;;;;;;;;;;;;;;;;;;
2023/01/31 20:40:02;;;;;;;12.00;6.00;;;;;;;4.27;100.00;99539.14;213041;1291;139353;-84
2023/01/31 20:45:56;;;;;;;12.00;5.70;;;;;;;4.29;100.00;99551.41;213404;1297;97977;-85
2023/01/31 20:51:56;;;;;;;11.00;6.10;;;;;;;4.31;100.00;99559.69;213842;1291;225138;-86
2023/01/31 20:57:49;;;;;;;;;;;;;;;;;;;;;
2023/01/31 21:09:53;;;;;;;12.30;3.70;;;;;;;4.37;100.00;99542.09;213228;1293;138520;-83
2023/01/31 21:15:27;;;;;;;11.50;3.70;;;;;;;4.37;100.00;99552.90;213394;1291;138986;-85
2023/01/31 21:21:21;;;;;;;11.10;3.50;;;;;;;4.31;100.00;99643.34;213287;1294;138331;-85
2023/01/31 21:33:07;;;;;;;10.30;3.10;;;;;;;3.84;100.00;99604.17;213612;1294;138331;-84
2023/01/31 21:38:56;;;;;;;6.90;2.50;;;;;;;3.69;100.00;99610.17;212919;1294;138665;-85
2023/01/31 21:44:58;;;;;;;5.20;1.80;;;;;;;3.56;100.00;99602.94;213517;1294;138327;-86
2023/01/31 21:50:59;;;;;;;;;;;;;;;;;;;;;
2023/01/31 21:57:07;;;;;;;12.30;3.40;;;;;;;3.35;100.00;99614.42;212631;1291;138452;-85
2023/01/31 22:03:09;;;;;;;10.70;2.50;;;;;;;3.27;100.00;99629.90;213400;1294;138557;-84
2023/01/31 22:09:09;;;;;;;;;;;;;;;;;;;;;
2023/01/31 22:21:15;;;;;;;;;;;;;;;;;;;;;
2023/01/31 22:27:02;;;;;;;9.00;1.40;;;;;;;2.95;100.00;99636.93;212780;1291;138694;-85
2023/01/31 22:32:54;;;;;;;;;;;;;;;;;;;;;
2023/01/31 22:38:56;;;;;;;11.80;3.30;;;;;;;2.77;100.00;99631.13;212797;1292;138576;-87
2023/01/31 22:44:58;;;;;;;7.80;2.00;;;;;;;2.68;100.00;99633.04;213131;1294;138442;-86
2023/01/31 22:50:57;;;;;;;;;;;;;;;;;;;;;
2023/01/31 22:56:53;;;;;;;;;;;;;;;;;;;;;
2023/01/31 23:02:46;;;;;;;9.70;1.90;;;;;;;2.51;100.00;99627.04;213272;1292;138304;-86
2023/01/31 23:08:47;;;;;;;10.80;2.00;;;;;;;2.47;100.00;99612.87;212855;1295;138283;-89
2023/01/31 23:14:48;;;;;;;13.90;2.20;;;;;;;2.45;100.00;99611.25;213243;1296;138442;-88
2023/01/31 23:20:43;;;;;;;6.20;1.60;;;;;;;2.44;100.00;99607.50;212601;1294;138891;-86
2023/01/31 23:26:33;;;;;;;10.90;2.00;;;;;;;2.40;100.00;99626.55;212589;1297;138416;-88
2023/01/31 23:32:35;;;;;;;8.70;2.90;;;;;;;2.39;100.00;99624.65;213231;1293;138315;-90
2023/01/31 23:38:34;;;;;;;;;;;;;;;;;;;;;
2023/01/31 23:44:34;;;;;;;;;;;;;;;;;;;;;
2023/01/31 23:50:37;;;;;;;11.40;2.30;;;;;;;2.42;100.00;99626.70;213077;1292;138504;-89
2023/01/31 23:56:30;;;;;;;;;;;;;;;;;;;;;
